sensor_id;sensor_type;location;lat;lon;timestamp;P1;P2;P0
62778;PMS7003;48821;48.796;2.396;2023-04-25T00:00:43;2.67;2.67;2.17
62778;PMS7003;48821;48.796;2.396;2023-04-25T00:01:54;5.67;4.00;4.00
62778;PMS7003;48821;48.796;2.396;2023-04-25T00:03:05;4.67;3.00;2.67
62778;PMS7003;48821;48.796;2.396;2023-04-25T00:04:16;5.25;3.75;3.00
62778;PMS7003;48821;48.796;2.396;2023-04-25T00:05:30;3.33;3.33;2.50
62778;PMS7003;48821;48.796;2.396;2023-04-25T00:06:44;3.50;3.00;2.67
62778;PMS7003;48821;48.796;2.396;2023-04-25T00:07:54;4.33;3.00;2.33
62778;PMS7003;48821;48.796;2.396;2023-04-25T00:09:05;3.33;3.33;2.33
62778;PMS7003;48821;48.796;2.396;2023-04-25T00:10:23;3.67;3.67;3.50
62778;PMS7003;48821;48.796;2.396;2023-04-25T00:11:36;5.50;3.17;2.67
62778;PMS7003;48821;48.796;2.396;2023-04-25T00:12:50;4.67;4.67;3.33
62778;PMS7003;48821;48.796;2.396;2023-04-25T00:14:04;5.50;5.00;3.67
62778;PMS7003;48821;48.796;2.396;2023-04-25T00:15:17;3.00;3.00;2.17
62778;PMS7003;48821;48.796;2.396;2023-04-25T00:16:30;6.50;5.33;3.67
62778;PMS7003;48821;48.796;2.396;2023-04-25T00:17:47;4.83;3.67;3.00
62778;PMS7003;48821;48.796;2.396;2023-04-25T00:19:01;3.83;1.33;0.67
62778;PMS7003;48821;48.796;2.396;2023-04-25T00:20:15;3.67;3.00;2.50
62778;PMS7003;48821;48.796;2.396;2023-04-25T00:21:28;2.00;1.00;1.00
62778;PMS7003;48821;48.796;2.396;2023-04-25T00:22:41;4.67;3.50;3.33
62778;PMS7003;48821;48.796;2.396;2023-04-25T00:23:55;4.00;3.83;3.17
62778;PMS7003;48821;48.796;2.396;2023-04-25T00:25:08;4.83;4.83;3.67
62778;PMS7003;48821;48.796;2.396;2023-04-25T00:26:22;2.50;2.00;1.17
62778;PMS7003;48821;48.796;2.396;2023-04-25T00:27:32;4.33;3.67;3.33
62778;PMS7003;48821;48.796;2.396;2023-04-25T00:28:45;3.40;3.40;2.60
62778;PMS7003;48821;48.796;2.396;2023-04-25T00:29:58;6.17;6.17;4.17
62778;PMS7003;48821;48.796;2.396;2023-04-25T00:31:11;3.83;3.83;2.83
62778;PMS7003;48821;48.796;2.396;2023-04-25T00:32:24;6.50;3.83;3.33
62778;PMS7003;48821;48.796;2.396;2023-04-25T00:33:38;6.50;5.67;4.00
62778;PMS7003;48821;48.796;2.396;2023-04-25T00:34:51;5.17;5.17;3.67
62778;PMS7003;48821;48.796;2.396;2023-04-25T00:36:05;8.67;6.33;3.83
62778;PMS7003;48821;48.796;2.396;2023-04-25T00:37:19;6.00;6.00;3.17
62778;PMS7003;48821;48.796;2.396;2023-04-25T00:38:32;6.67;6.50;5.33
62778;PMS7003;48821;48.796;2.396;2023-04-25T00:39:45;8.00;6.33;5.83
62778;PMS7003;48821;48.796;2.396;2023-04-25T00:40:56;9.67;7.67;5.67
62778;PMS7003;48821;48.796;2.396;2023-04-25T00:42:10;8.83;7.50;5.83
62778;PMS7003;48821;48.796;2.396;2023-04-25T00:43:21;8.33;8.33;7.00
62778;PMS7003;48821;48.796;2.396;2023-04-25T00:44:32;9.00;7.67;6.67
62778;PMS7003;48821;48.796;2.396;2023-04-25T00:45:47;9.50;8.00;5.83
62778;PMS7003;48821;48.796;2.396;2023-04-25T00:47:03;9.50;8.17;6.83
62778;PMS7003;48821;48.796;2.396;2023-04-25T00:48:17;7.67;7.17;6.33
62778;PMS7003;48821;48.796;2.396;2023-04-25T00:49:28;10.00;10.00;7.00
62778;PMS7003;48821;48.796;2.396;2023-04-25T00:50:39;8.00;7.67;6.00
62778;PMS7003;48821;48.796;2.396;2023-04-25T00:51:50;10.33;9.00;7.00
62778;PMS7003;48821;48.796;2.396;2023-04-25T00:53:01;13.33;8.33;6.67
62778;PMS7003;48821;48.796;2.396;2023-04-25T00:54:12;12.33;7.67;6.00
62778;PMS7003;48821;48.796;2.396;2023-04-25T00:55:26;6.00;6.00;3.83
62778;PMS7003;48821;48.796;2.396;2023-04-25T00:56:39;9.67;7.67;5.67
62778;PMS7003;48821;48.796;2.396;2023-04-25T00:57:53;8.00;8.00;7.00
62778;PMS7003;48821;48.796;2.396;2023-04-25T00:59:03;10.00;10.00;7.33
62778;PMS7003;48821;48.796;2.396;2023-04-25T01:00:14;8.33;7.00;6.00
62778;PMS7003;48821;48.796;2.396;2023-04-25T01:01:28;9.00;8.00;6.33
62778;PMS7003;48821;48.796;2.396;2023-04-25T01:02:41;8.00;7.83;6.33
62778;PMS7003;48821;48.796;2.396;2023-04-25T01:03:55;7.00;6.33;4.83
62778;PMS7003;48821;48.796;2.396;2023-04-25T01:05:09;8.33;5.00;4.17
62778;PMS7003;48821;48.796;2.396;2023-04-25T01:06:22;8.33;7.33;5.33
62778;PMS7003;48821;48.796;2.396;2023-04-25T01:07:36;7.17;6.17;4.67
62778;PMS7003;48821;48.796;2.396;2023-04-25T01:08:49;7.83;7.67;6.00
62778;PMS7003;48821;48.796;2.396;2023-04-25T01:10:04;3.50;3.50;1.50
62778;PMS7003;48821;48.796;2.396;2023-04-25T01:11:19;7.00;7.00;6.17
62778;PMS7003;48821;48.796;2.396;2023-04-25T01:12:33;7.00;7.00;5.50
62778;PMS7003;48821;48.796;2.396;2023-04-25T01:13:45;9.33;9.33;7.00
62778;PMS7003;48821;48.796;2.396;2023-04-25T01:14:57;7.75;7.75;6.00
62778;PMS7003;48821;48.796;2.396;2023-04-25T01:16:07;9.00;6.67;5.00
62778;PMS7003;48821;48.796;2.396;2023-04-25T01:17:18;13.00;9.50;7.00
62778;PMS7003;48821;48.796;2.396;2023-04-25T01:18:30;12.00;11.25;7.50
62778;PMS7003;48821;48.796;2.396;2023-04-25T01:19:41;9.67;9.33;6.67
62778;PMS7003;48821;48.796;2.396;2023-04-25T01:20:55;9.00;8.17;6.33
62778;PMS7003;48821;48.796;2.396;2023-04-25T01:22:05;10.67;8.67;7.00
62778;PMS7003;48821;48.796;2.396;2023-04-25T01:23:16;10.33;7.67;6.67
62778;PMS7003;48821;48.796;2.396;2023-04-25T01:24:28;8.67;8.67;8.00
62778;PMS7003;48821;48.796;2.396;2023-04-25T01:25:39;7.00;7.00;5.67
62778;PMS7003;48821;48.796;2.396;2023-04-25T01:26:50;11.00;9.00;7.00
62778;PMS7003;48821;48.796;2.396;2023-04-25T01:28:01;10.33;8.00;7.00
62778;PMS7003;48821;48.796;2.396;2023-04-25T01:29:12;12.00;9.00;6.00
62778;PMS7003;48821;48.796;2.396;2023-04-25T01:30:25;8.00;7.00;5.00
62778;PMS7003;48821;48.796;2.396;2023-04-25T01:31:40;7.50;5.50;4.83
62778;PMS7003;48821;48.796;2.396;2023-04-25T01:32:51;10.33;8.33;6.33
62778;PMS7003;48821;48.796;2.396;2023-04-25T01:34:06;9.00;8.00;6.50
62778;PMS7003;48821;48.796;2.396;2023-04-25T01:35:20;6.67;6.67;4.67
62778;PMS7003;48821;48.796;2.396;2023-04-25T01:36:33;7.50;7.00;5.33
62778;PMS7003;48821;48.796;2.396;2023-04-25T01:37:44;9.33;7.67;6.33
62778;PMS7003;48821;48.796;2.396;2023-04-25T01:38:56;9.33;8.33;6.67
62778;PMS7003;48821;48.796;2.396;2023-04-25T01:40:09;8.80;8.80;7.00
62778;PMS7003;48821;48.796;2.396;2023-04-25T01:41:23;7.33;7.33;5.67
62778;PMS7003;48821;48.796;2.396;2023-04-25T01:42:35;8.67;8.67;6.67
62778;PMS7003;48821;48.796;2.396;2023-04-25T01:43:46;9.67;9.33;7.00
62778;PMS7003;48821;48.796;2.396;2023-04-25T01:44:58;7.25;6.00;5.00
62778;PMS7003;48821;48.796;2.396;2023-04-25T01:46:12;6.50;5.83;4.17
62778;PMS7003;48821;48.796;2.396;2023-04-25T01:47:22;11.00;8.00;6.33
62778;PMS7003;48821;48.796;2.396;2023-04-25T01:48:33;12.00;9.00;6.00
62778;PMS7003;48821;48.796;2.396;2023-04-25T01:49:44;12.67;10.67;7.33
62778;PMS7003;48821;48.796;2.396;2023-04-25T01:50:55;9.00;9.00;6.00
62778;PMS7003;48821;48.796;2.396;2023-04-25T01:52:06;11.00;10.00;7.00
62778;PMS7003;48821;48.796;2.396;2023-04-25T01:53:17;9.67;8.00;6.33
62778;PMS7003;48821;48.796;2.396;2023-04-25T01:54:29;11.00;8.25;5.75
62778;PMS7003;48821;48.796;2.396;2023-04-25T01:55:39;10.67;7.33;6.00
62778;PMS7003;48821;48.796;2.396;2023-04-25T01:56:50;8.33;8.33;6.33
62778;PMS7003;48821;48.796;2.396;2023-04-25T01:58:03;9.40;7.20;6.40
62778;PMS7003;48821;48.796;2.396;2023-04-25T01:59:19;10.33;8.00;7.00
62778;PMS7003;48821;48.796;2.396;2023-04-25T02:00:31;8.67;8.33;6.00
62778;PMS7003;48821;48.796;2.396;2023-04-25T02:01:42;10.67;10.67;8.00
62778;PMS7003;48821;48.796;2.396;2023-04-25T02:02:53;9.33;9.33;6.00
62778;PMS7003;48821;48.796;2.396;2023-04-25T02:04:07;12.00;10.00;8.00
62778;PMS7003;48821;48.796;2.396;2023-04-25T02:05:18;7.33;7.33;6.33
62778;PMS7003;48821;48.796;2.396;2023-04-25T02:06:29;11.00;8.67;7.00
62778;PMS7003;48821;48.796;2.396;2023-04-25T02:07:40;10.33;8.00;7.00
62778;PMS7003;48821;48.796;2.396;2023-04-25T02:08:51;7.67;7.67;6.00
62778;PMS7003;48821;48.796;2.396;2023-04-25T02:10:05;7.50;7.50;4.83
62778;PMS7003;48821;48.796;2.396;2023-04-25T02:11:15;10.00;9.33;8.00
62778;PMS7003;48821;48.796;2.396;2023-04-25T02:12:27;9.33;9.33;7.33
62778;PMS7003;48821;48.796;2.396;2023-04-25T02:13:38;10.67;9.00;7.00
62778;PMS7003;48821;48.796;2.396;2023-04-25T02:14:49;11.67;11.67;8.00
62778;PMS7003;48821;48.796;2.396;2023-04-25T02:16:00;9.33;9.33;6.00
62778;PMS7003;48821;48.796;2.396;2023-04-25T02:17:11;13.33;8.00;6.00
62778;PMS7003;48821;48.796;2.396;2023-04-25T02:18:22;13.00;9.00;7.00
62778;PMS7003;48821;48.796;2.396;2023-04-25T02:19:33;10.00;8.67;6.67
62778;PMS7003;48821;48.796;2.396;2023-04-25T02:20:45;10.50;7.75;6.75
62778;PMS7003;48821;48.796;2.396;2023-04-25T02:21:58;8.17;7.00;4.50
62778;PMS7003;48821;48.796;2.396;2023-04-25T02:23:08;9.33;9.33;7.00
62778;PMS7003;48821;48.796;2.396;2023-04-25T02:24:20;9.00;7.25;4.75
62778;PMS7003;48821;48.796;2.396;2023-04-25T02:25:31;8.33;7.33;6.00
62778;PMS7003;48821;48.796;2.396;2023-04-25T02:26:42;11.00;9.50;6.00
62778;PMS7003;48821;48.796;2.396;2023-04-25T02:27:54;7.75;6.50;4.25
62778;PMS7003;48821;48.796;2.396;2023-04-25T02:29:07;9.00;8.33;5.83
62778;PMS7003;48821;48.796;2.396;2023-04-25T02:30:19;11.00;8.67;6.33
62778;PMS7003;48821;48.796;2.396;2023-04-25T02:31:30;9.67;9.67;7.00
62778;PMS7003;48821;48.796;2.396;2023-04-25T02:32:41;10.00;7.67;7.00
62778;PMS7003;48821;48.796;2.396;2023-04-25T02:33:52;7.33;6.00;5.33
62778;PMS7003;48821;48.796;2.396;2023-04-25T02:35:06;8.50;7.83;6.00
62778;PMS7003;48821;48.796;2.396;2023-04-25T02:36:17;14.25;10.00;7.00
62778;PMS7003;48821;48.796;2.396;2023-04-25T02:37:28;15.67;9.33;7.00
62778;PMS7003;48821;48.796;2.396;2023-04-25T02:38:39;10.50;10.50;8.00
62778;PMS7003;48821;48.796;2.396;2023-04-25T02:39:50;9.67;7.67;6.33
62778;PMS7003;48821;48.796;2.396;2023-04-25T02:41:02;9.50;9.00;7.25
62778;PMS7003;48821;48.796;2.396;2023-04-25T02:42:13;10.00;9.33;6.33
62778;PMS7003;48821;48.796;2.396;2023-04-25T02:43:24;13.00;10.00;8.00
62778;PMS7003;48821;48.796;2.396;2023-04-25T02:44:34;13.00;9.00;7.00
62778;PMS7003;48821;48.796;2.396;2023-04-25T02:45:45;11.00;9.67;7.00
62778;PMS7003;48821;48.796;2.396;2023-04-25T02:46:56;12.00;11.00;8.00
62778;PMS7003;48821;48.796;2.396;2023-04-25T02:48:07;10.00;10.00;7.00
62778;PMS7003;48821;48.796;2.396;2023-04-25T02:49:18;11.33;8.00;5.33
62778;PMS7003;48821;48.796;2.396;2023-04-25T02:50:29;8.33;7.67;6.33
62778;PMS7003;48821;48.796;2.396;2023-04-25T02:51:40;10.00;10.00;7.00
62778;PMS7003;48821;48.796;2.396;2023-04-25T02:52:51;11.67;10.00;7.00
62778;PMS7003;48821;48.796;2.396;2023-04-25T02:54:02;14.33;8.67;6.00
62778;PMS7003;48821;48.796;2.396;2023-04-25T02:55:13;11.00;9.00;7.00
62778;PMS7003;48821;48.796;2.396;2023-04-25T02:56:23;9.67;9.00;8.00
62778;PMS7003;48821;48.796;2.396;2023-04-25T02:57:36;13.67;11.33;9.00
62778;PMS7003;48821;48.796;2.396;2023-04-25T02:58:47;12.00;9.00;7.00
62778;PMS7003;48821;48.796;2.396;2023-04-25T02:59:58;11.00;9.67;6.67
62778;PMS7003;48821;48.796;2.396;2023-04-25T03:01:09;12.67;10.00;7.67
62778;PMS7003;48821;48.796;2.396;2023-04-25T03:02:19;12.67;12.67;8.00
62778;PMS7003;48821;48.796;2.396;2023-04-25T03:03:30;11.00;10.50;8.00
62778;PMS7003;48821;48.796;2.396;2023-04-25T03:04:41;10.00;10.00;7.67
62778;PMS7003;48821;48.796;2.396;2023-04-25T03:05:53;12.25;12.25;8.75
62778;PMS7003;48821;48.796;2.396;2023-04-25T03:07:05;10.00;10.00;8.25
62778;PMS7003;48821;48.796;2.396;2023-04-25T03:08:19;15.00;10.00;8.00
62778;PMS7003;48821;48.796;2.396;2023-04-25T03:09:29;10.67;10.67;8.67
62778;PMS7003;48821;48.796;2.396;2023-04-25T03:10:40;11.00;9.33;7.67
62778;PMS7003;48821;48.796;2.396;2023-04-25T03:11:51;13.33;11.67;8.33
62778;PMS7003;48821;48.796;2.396;2023-04-25T03:13:02;11.00;9.00;7.00
62778;PMS7003;48821;48.796;2.396;2023-04-25T03:14:13;12.00;11.50;8.00
62778;PMS7003;48821;48.796;2.396;2023-04-25T03:15:24;11.00;10.67;9.00
62778;PMS7003;48821;48.796;2.396;2023-04-25T03:16:35;10.67;10.67;8.33
62778;PMS7003;48821;48.796;2.396;2023-04-25T03:17:46;13.75;12.00;9.00
62778;PMS7003;48821;48.796;2.396;2023-04-25T03:18:58;12.50;10.25;8.00
62778;PMS7003;48821;48.796;2.396;2023-04-25T03:20:09;10.75;9.50;7.00
62778;PMS7003;48821;48.796;2.396;2023-04-25T03:21:20;9.50;9.50;7.00
62778;PMS7003;48821;48.796;2.396;2023-04-25T03:22:31;13.00;11.00;9.00
62778;PMS7003;48821;48.796;2.396;2023-04-25T03:23:42;18.00;13.00;10.00
62778;PMS7003;48821;48.796;2.396;2023-04-25T03:24:53;17.33;11.00;6.67
62778;PMS7003;48821;48.796;2.396;2023-04-25T03:26:04;15.00;13.00;10.00
62778;PMS7003;48821;48.796;2.396;2023-04-25T03:27:15;12.00;11.00;8.00
62778;PMS7003;48821;48.796;2.396;2023-04-25T03:28:27;13.00;11.00;8.00
62778;PMS7003;48821;48.796;2.396;2023-04-25T03:29:38;12.67;10.00;8.00
62778;PMS7003;48821;48.796;2.396;2023-04-25T03:30:49;15.00;11.50;9.00
62778;PMS7003;48821;48.796;2.396;2023-04-25T03:32:00;17.00;11.00;8.00
62778;PMS7003;48821;48.796;2.396;2023-04-25T03:33:11;15.00;12.00;8.00
62778;PMS7003;48821;48.796;2.396;2023-04-25T03:34:22;14.33;12.33;8.00
62778;PMS7003;48821;48.796;2.396;2023-04-25T03:35:32;18.00;12.50;9.00
62778;PMS7003;48821;48.796;2.396;2023-04-25T03:36:43;18.00;13.00;10.00
62778;PMS7003;48821;48.796;2.396;2023-04-25T03:37:54;16.00;14.00;10.00
62778;PMS7003;48821;48.796;2.396;2023-04-25T03:39:05;11.67;10.67;7.33
62778;PMS7003;48821;48.796;2.396;2023-04-25T03:40:16;17.00;13.00;9.50
62778;PMS7003;48821;48.796;2.396;2023-04-25T03:41:27;14.50;13.00;9.00
62778;PMS7003;48821;48.796;2.396;2023-04-25T03:42:38;14.00;11.50;9.00
62778;PMS7003;48821;48.796;2.396;2023-04-25T03:43:50;13.50;10.00;7.25
62778;PMS7003;48821;48.796;2.396;2023-04-25T03:45:01;14.00;12.00;9.67
62778;PMS7003;48821;48.796;2.396;2023-04-25T03:46:11;12.00;11.00;8.00
62778;PMS7003;48821;48.796;2.396;2023-04-25T03:47:22;14.50;10.00;7.00
62778;PMS7003;48821;48.796;2.396;2023-04-25T03:48:33;14.00;11.00;8.00
62778;PMS7003;48821;48.796;2.396;2023-04-25T03:49:44;10.67;10.67;7.67
62778;PMS7003;48821;48.796;2.396;2023-04-25T03:50:56;13.00;11.40;9.00
62778;PMS7003;48821;48.796;2.396;2023-04-25T03:52:07;13.50;12.00;9.00
62778;PMS7003;48821;48.796;2.396;2023-04-25T03:53:18;14.00;10.00;7.00
62778;PMS7003;48821;48.796;2.396;2023-04-25T03:54:29;14.50;12.50;8.50
62778;PMS7003;48821;48.796;2.396;2023-04-25T03:55:40;16.00;11.00;7.00
62778;PMS7003;48821;48.796;2.396;2023-04-25T03:56:51;12.33;10.00;8.00
62778;PMS7003;48821;48.796;2.396;2023-04-25T03:58:02;13.00;10.00;8.33
62778;PMS7003;48821;48.796;2.396;2023-04-25T03:59:15;15.50;13.00;9.67
62778;PMS7003;48821;48.796;2.396;2023-04-25T04:00:25;15.50;12.50;9.00
62778;PMS7003;48821;48.796;2.396;2023-04-25T04:01:36;14.00;10.50;8.00
62778;PMS7003;48821;48.796;2.396;2023-04-25T04:02:48;15.00;13.25;9.50
62778;PMS7003;48821;48.796;2.396;2023-04-25T04:03:59;12.00;11.00;8.00
62778;PMS7003;48821;48.796;2.396;2023-04-25T04:05:10;12.00;10.00;8.00
62778;PMS7003;48821;48.796;2.396;2023-04-25T04:06:21;11.00;9.33;8.00
62778;PMS7003;48821;48.796;2.396;2023-04-25T04:07:32;14.50;11.50;9.00
62778;PMS7003;48821;48.796;2.396;2023-04-25T04:08:43;13.50;10.00;8.00
62778;PMS7003;48821;48.796;2.396;2023-04-25T04:09:54;11.50;10.00;8.00
62778;PMS7003;48821;48.796;2.396;2023-04-25T04:11:05;10.33;9.00;6.67
62778;PMS7003;48821;48.796;2.396;2023-04-25T04:12:17;13.00;11.75;9.00
62778;PMS7003;48821;48.796;2.396;2023-04-25T04:13:28;11.75;11.75;9.00
62778;PMS7003;48821;48.796;2.396;2023-04-25T04:14:40;9.00;9.00;6.00
62778;PMS7003;48821;48.796;2.396;2023-04-25T04:15:51;13.00;13.00;10.00
62778;PMS7003;48821;48.796;2.396;2023-04-25T04:17:02;15.00;13.00;9.60
62778;PMS7003;48821;48.796;2.396;2023-04-25T04:18:13;12.00;9.00;8.00
62778;PMS7003;48821;48.796;2.396;2023-04-25T04:19:24;17.50;12.50;10.00
62778;PMS7003;48821;48.796;2.396;2023-04-25T04:20:35;12.67;11.67;9.33
62778;PMS7003;48821;48.796;2.396;2023-04-25T04:21:46;13.67;12.33;9.00
62778;PMS7003;48821;48.796;2.396;2023-04-25T04:22:57;13.00;13.00;8.50
62778;PMS7003;48821;48.796;2.396;2023-04-25T04:24:09;13.80;11.60;8.60
62778;PMS7003;48821;48.796;2.396;2023-04-25T04:25:20;14.00;12.00;10.00
62778;PMS7003;48821;48.796;2.396;2023-04-25T04:26:32;12.40;9.00;7.00
62778;PMS7003;48821;48.796;2.396;2023-04-25T04:27:44;13.50;13.50;10.50
62778;PMS7003;48821;48.796;2.396;2023-04-25T04:28:56;14.00;10.50;8.00
62778;PMS7003;48821;48.796;2.396;2023-04-25T04:30:07;12.75;11.75;9.00
62778;PMS7003;48821;48.796;2.396;2023-04-25T04:31:18;13.00;11.00;8.50
62778;PMS7003;48821;48.796;2.396;2023-04-25T04:32:29;15.00;12.00;9.00
62778;PMS7003;48821;48.796;2.396;2023-04-25T04:33:43;12.00;11.67;8.50
62778;PMS7003;48821;48.796;2.396;2023-04-25T04:34:54;13.00;11.00;9.00
62778;PMS7003;48821;48.796;2.396;2023-04-25T04:36:06;17.00;12.67;10.00
62778;PMS7003;48821;48.796;2.396;2023-04-25T04:37:17;14.00;12.50;9.50
62778;PMS7003;48821;48.796;2.396;2023-04-25T04:38:30;12.40;12.00;9.00
62778;PMS7003;48821;48.796;2.396;2023-04-25T04:39:41;14.25;10.00;8.00
62778;PMS7003;48821;48.796;2.396;2023-04-25T04:40:52;15.00;12.50;9.00
62778;PMS7003;48821;48.796;2.396;2023-04-25T04:42:03;13.00;12.50;10.00
62778;PMS7003;48821;48.796;2.396;2023-04-25T04:43:15;11.50;10.00;7.50
62778;PMS7003;48821;48.796;2.396;2023-04-25T04:44:27;15.50;14.00;10.00
62778;PMS7003;48821;48.796;2.396;2023-04-25T04:45:41;14.33;12.33;9.00
62778;PMS7003;48821;48.796;2.396;2023-04-25T04:46:52;11.50;11.50;10.00
62778;PMS7003;48821;48.796;2.396;2023-04-25T04:48:05;11.60;11.20;8.80
62778;PMS7003;48821;48.796;2.396;2023-04-25T04:49:16;14.50;12.00;10.00
62778;PMS7003;48821;48.796;2.396;2023-04-25T04:50:27;18.50;15.00;10.50
62778;PMS7003;48821;48.796;2.396;2023-04-25T04:51:38;16.50;13.50;11.00
62778;PMS7003;48821;48.796;2.396;2023-04-25T04:52:49;12.00;11.50;8.50
62778;PMS7003;48821;48.796;2.396;2023-04-25T04:54:00;14.00;11.00;8.00
62778;PMS7003;48821;48.796;2.396;2023-04-25T04:55:15;17.71;15.29;11.29
62778;PMS7003;48821;48.796;2.396;2023-04-25T04:56:26;20.00;17.00;12.00
62778;PMS7003;48821;48.796;2.396;2023-04-25T04:57:39;13.00;11.25;8.00
62778;PMS7003;48821;48.796;2.396;2023-04-25T04:58:50;14.00;14.00;10.25
62778;PMS7003;48821;48.796;2.396;2023-04-25T05:00:03;20.00;17.00;11.00
62778;PMS7003;48821;48.796;2.396;2023-04-25T05:01:24;14.33;14.33;11.00
62778;PMS7003;48821;48.796;2.396;2023-04-25T05:02:37;17.25;14.75;10.00
62778;PMS7003;48821;48.796;2.396;2023-04-25T05:03:48;17.00;14.00;10.00
62778;PMS7003;48821;48.796;2.396;2023-04-25T05:05:02;18.67;14.67;10.00
62778;PMS7003;48821;48.796;2.396;2023-04-25T05:06:13;14.00;11.67;8.00
62778;PMS7003;48821;48.796;2.396;2023-04-25T05:07:24;15.00;13.50;10.00
62778;PMS7003;48821;48.796;2.396;2023-04-25T05:08:35;15.00;13.00;10.00
62778;PMS7003;48821;48.796;2.396;2023-04-25T05:09:46;17.00;17.00;13.00
62778;PMS7003;48821;48.796;2.396;2023-04-25T05:10:57;17.00;16.00;12.00
62778;PMS7003;48821;48.796;2.396;2023-04-25T05:12:08;14.25;14.00;10.25
62778;PMS7003;48821;48.796;2.396;2023-04-25T05:13:19;18.00;13.50;8.00
62778;PMS7003;48821;48.796;2.396;2023-04-25T05:14:30;15.75;15.50;10.00
62778;PMS7003;48821;48.796;2.396;2023-04-25T05:15:41;16.00;13.00;10.00
62778;PMS7003;48821;48.796;2.396;2023-04-25T05:16:53;20.00;15.67;11.00
62778;PMS7003;48821;48.796;2.396;2023-04-25T05:18:03;14.00;14.00;10.00
62778;PMS7003;48821;48.796;2.396;2023-04-25T05:19:14;20.00;17.00;12.00
62778;PMS7003;48821;48.796;2.396;2023-04-25T05:20:25;18.00;15.50;12.00
62778;PMS7003;48821;48.796;2.396;2023-04-25T05:21:36;16.00;13.50;11.00
62778;PMS7003;48821;48.796;2.396;2023-04-25T05:22:47;20.00;16.00;12.00
62778;PMS7003;48821;48.796;2.396;2023-04-25T05:23:59;20.60;14.80;10.80
62778;PMS7003;48821;48.796;2.396;2023-04-25T05:25:10;19.00;15.00;10.00
62778;PMS7003;48821;48.796;2.396;2023-04-25T05:26:22;19.67;18.33;12.33
62778;PMS7003;48821;48.796;2.396;2023-04-25T05:27:34;17.00;17.00;12.00
62778;PMS7003;48821;48.796;2.396;2023-04-25T05:28:45;19.50;18.00;12.50
62778;PMS7003;48821;48.796;2.396;2023-04-25T05:29:56;15.50;14.00;10.00
62778;PMS7003;48821;48.796;2.396;2023-04-25T05:31:09;19.00;18.00;12.33
62778;PMS7003;48821;48.796;2.396;2023-04-25T05:32:21;17.33;14.33;10.67
62778;PMS7003;48821;48.796;2.396;2023-04-25T05:33:32;23.33;17.67;13.00
62778;PMS7003;48821;48.796;2.396;2023-04-25T05:34:44;18.00;15.67;11.33
62778;PMS7003;48821;48.796;2.396;2023-04-25T05:35:55;15.50;15.00;11.00
62778;PMS7003;48821;48.796;2.396;2023-04-25T05:37:06;12.67;11.67;7.00
62778;PMS7003;48821;48.796;2.396;2023-04-25T05:38:17;17.00;16.00;12.00
62778;PMS7003;48821;48.796;2.396;2023-04-25T05:39:29;19.00;16.67;12.33
62778;PMS7003;48821;48.796;2.396;2023-04-25T05:40:40;18.67;14.67;11.67
62778;PMS7003;48821;48.796;2.396;2023-04-25T05:41:52;19.00;16.00;12.00
62778;PMS7003;48821;48.796;2.396;2023-04-25T05:43:03;17.00;15.33;10.00
62778;PMS7003;48821;48.796;2.396;2023-04-25T05:44:15;23.00;16.67;12.00
62778;PMS7003;48821;48.796;2.396;2023-04-25T05:45:27;17.67;15.33;11.67
62778;PMS7003;48821;48.796;2.396;2023-04-25T05:46:38;17.67;17.00;12.00
62778;PMS7003;48821;48.796;2.396;2023-04-25T05:47:49;22.33;18.00;10.67
62778;PMS7003;48821;48.796;2.396;2023-04-25T05:49:00;14.50;14.50;11.00
62778;PMS7003;48821;48.796;2.396;2023-04-25T05:50:12;17.00;15.67;10.67
62778;PMS7003;48821;48.796;2.396;2023-04-25T05:51:23;18.50;15.50;10.00
62778;PMS7003;48821;48.796;2.396;2023-04-25T05:52:35;20.33;17.67;11.33
62778;PMS7003;48821;48.796;2.396;2023-04-25T05:53:46;21.00;16.33;11.67
62778;PMS7003;48821;48.796;2.396;2023-04-25T05:54:58;18.00;17.67;12.67
62778;PMS7003;48821;48.796;2.396;2023-04-25T05:56:10;17.33;16.33;11.00
62778;PMS7003;48821;48.796;2.396;2023-04-25T05:57:24;17.67;15.83;11.00
62778;PMS7003;48821;48.796;2.396;2023-04-25T05:58:39;17.67;15.83;10.83
62778;PMS7003;48821;48.796;2.396;2023-04-25T05:59:50;21.00;19.50;14.00
62778;PMS7003;48821;48.796;2.396;2023-04-25T06:01:01;16.50;15.00;12.00
62778;PMS7003;48821;48.796;2.396;2023-04-25T06:02:13;21.67;17.33;13.00
62778;PMS7003;48821;48.796;2.396;2023-04-25T06:03:25;17.67;15.00;11.67
62778;PMS7003;48821;48.796;2.396;2023-04-25T06:04:39;20.43;19.00;13.00
62778;PMS7003;48821;48.796;2.396;2023-04-25T06:05:50;18.67;16.00;11.67
62778;PMS7003;48821;48.796;2.396;2023-04-25T06:07:01;18.00;16.00;11.00
62778;PMS7003;48821;48.796;2.396;2023-04-25T06:08:13;17.67;17.00;12.33
62778;PMS7003;48821;48.796;2.396;2023-04-25T06:09:26;19.20;15.80;11.00
62778;PMS7003;48821;48.796;2.396;2023-04-25T06:10:40;24.14;18.57;12.71
62778;PMS7003;48821;48.796;2.396;2023-04-25T06:11:51;23.00;20.33;13.00
62778;PMS7003;48821;48.796;2.396;2023-04-25T06:13:04;18.33;17.33;12.00
62778;PMS7003;48821;48.796;2.396;2023-04-25T06:14:16;19.00;17.33;13.33
62778;PMS7003;48821;48.796;2.396;2023-04-25T06:15:28;20.20;16.20;11.00
62778;PMS7003;48821;48.796;2.396;2023-04-25T06:16:39;21.67;17.33;13.00
62778;PMS7003;48821;48.796;2.396;2023-04-25T06:17:52;22.83;18.67;13.67
62778;PMS7003;48821;48.796;2.396;2023-04-25T06:19:04;21.67;19.00;14.67
62778;PMS7003;48821;48.796;2.396;2023-04-25T06:20:16;22.33;18.33;12.00
62778;PMS7003;48821;48.796;2.396;2023-04-25T06:21:27;22.00;20.00;13.00
62778;PMS7003;48821;48.796;2.396;2023-04-25T06:22:38;16.00;13.00;12.00
62778;PMS7003;48821;48.796;2.396;2023-04-25T06:23:49;20.67;19.00;13.00
62778;PMS7003;48821;48.796;2.396;2023-04-25T06:25:01;22.60;19.20;12.80
62778;PMS7003;48821;48.796;2.396;2023-04-25T06:26:15;21.33;18.33;13.00
62778;PMS7003;48821;48.796;2.396;2023-04-25T06:27:28;23.50;19.00;13.50
62778;PMS7003;48821;48.796;2.396;2023-04-25T06:28:40;22.67;20.33;14.67
62778;PMS7003;48821;48.796;2.396;2023-04-25T06:29:51;22.33;20.00;14.00
62778;PMS7003;48821;48.796;2.396;2023-04-25T06:31:03;19.60;16.80;12.40
62778;PMS7003;48821;48.796;2.396;2023-04-25T06:32:15;22.40;19.00;12.80
62778;PMS7003;48821;48.796;2.396;2023-04-25T06:33:28;17.67;16.67;11.33
62778;PMS7003;48821;48.796;2.396;2023-04-25T06:34:40;17.00;16.67;12.00
62778;PMS7003;48821;48.796;2.396;2023-04-25T06:35:52;20.33;18.00;12.00
62778;PMS7003;48821;48.796;2.396;2023-04-25T06:37:03;21.00;17.00;13.00
62778;PMS7003;48821;48.796;2.396;2023-04-25T06:38:16;18.20;17.80;12.00
62778;PMS7003;48821;48.796;2.396;2023-04-25T06:39:27;19.00;17.00;11.00
62778;PMS7003;48821;48.796;2.396;2023-04-25T06:40:38;21.00;18.50;12.00
62778;PMS7003;48821;48.796;2.396;2023-04-25T06:41:49;17.00;15.00;10.50
62778;PMS7003;48821;48.796;2.396;2023-04-25T06:43:01;18.20;17.80;13.20
62778;PMS7003;48821;48.796;2.396;2023-04-25T06:44:11;16.50;16.00;12.00
62778;PMS7003;48821;48.796;2.396;2023-04-25T06:45:22;14.00;12.50;10.50
62778;PMS7003;48821;48.796;2.396;2023-04-25T06:46:33;14.75;14.00;10.50
62778;PMS7003;48821;48.796;2.396;2023-04-25T06:47:44;13.50;13.50;10.00
62778;PMS7003;48821;48.796;2.396;2023-04-25T06:48:55;14.00;14.00;9.25
62778;PMS7003;48821;48.796;2.396;2023-04-25T06:50:06;15.00;12.00;9.00
62778;PMS7003;48821;48.796;2.396;2023-04-25T06:51:17;13.00;12.00;8.50